sensor_id;sensor_type;location;lat;lon;timestamp;temperature;humidity
666;DHT22;315;48.738;9.126;2023-06-26T00:02:17;21.70;86.60
666;DHT22;315;48.738;9.126;2023-06-26T00:04:43;21.80;85.90
666;DHT22;315;48.738;9.126;2023-06-26T00:07:09;21.90;86.30
666;DHT22;315;48.738;9.126;2023-06-26T00:09:35;21.90;86.30
666;DHT22;315;48.738;9.126;2023-06-26T00:12:00;21.90;86.60
666;DHT22;315;48.738;9.126;2023-06-26T00:14:26;21.90;85.50
666;DHT22;315;48.738;9.126;2023-06-26T00:16:52;21.80;85.80
666;DHT22;315;48.738;9.126;2023-06-26T00:19:18;21.70;88.40
666;DHT22;315;48.738;9.126;2023-06-26T00:21:44;21.70;86.90
666;DHT22;315;48.738;9.126;2023-06-26T00:24:12;21.70;87.70
666;DHT22;315;48.738;9.126;2023-06-26T00:26:38;21.90;88.60
666;DHT22;315;48.738;9.126;2023-06-26T00:29:04;21.80;88.10
666;DHT22;315;48.738;9.126;2023-06-26T00:31:30;21.70;89.00
666;DHT22;315;48.738;9.126;2023-06-26T00:33:55;21.50;91.60
666;DHT22;315;48.738;9.126;2023-06-26T00:36:21;21.50;91.40
666;DHT22;315;48.738;9.126;2023-06-26T00:38:49;21.50;92.10
666;DHT22;315;48.738;9.126;2023-06-26T00:41:15;21.40;92.60
666;DHT22;315;48.738;9.126;2023-06-26T00:43:41;21.30;92.70
666;DHT22;315;48.738;9.126;2023-06-26T00:46:09;21.30;92.90
666;DHT22;315;48.738;9.126;2023-06-26T00:48:36;21.20;94.30
666;DHT22;315;48.738;9.126;2023-06-26T00:51:02;21.20;94.60
666;DHT22;315;48.738;9.126;2023-06-26T00:53:28;21.20;94.30
666;DHT22;315;48.738;9.126;2023-06-26T00:55:54;21.00;95.90
666;DHT22;315;48.738;9.126;2023-06-26T00:58:23;21.00;95.80
666;DHT22;315;48.738;9.126;2023-06-26T01:00:51;21.00;96.10
666;DHT22;315;48.738;9.126;2023-06-26T01:03:17;20.90;97.20
666;DHT22;315;48.738;9.126;2023-06-26T01:05:42;20.80;97.50
666;DHT22;315;48.738;9.126;2023-06-26T01:08:12;20.70;98.00
666;DHT22;315;48.738;9.126;2023-06-26T01:10:38;20.70;98.20
666;DHT22;315;48.738;9.126;2023-06-26T01:13:05;20.80;97.70
666;DHT22;315;48.738;9.126;2023-06-26T01:15:30;20.80;97.60
666;DHT22;315;48.738;9.126;2023-06-26T01:17:57;20.90;97.90
666;DHT22;315;48.738;9.126;2023-06-26T01:20:25;20.80;97.80
666;DHT22;315;48.738;9.126;2023-06-26T01:28:32;20.60;99.60
666;DHT22;315;48.738;9.126;2023-06-26T01:30:59;20.70;99.70
666;DHT22;315;48.738;9.126;2023-06-26T01:33:25;20.70;99.60
666;DHT22;315;48.738;9.126;2023-06-26T01:35:51;20.80;99.60
666;DHT22;315;48.738;9.126;2023-06-26T01:38:19;20.90;99.00
666;DHT22;315;48.738;9.126;2023-06-26T01:40:45;20.80;99.20
666;DHT22;315;48.738;9.126;2023-06-26T01:43:35;20.80;99.70
666;DHT22;315;48.738;9.126;2023-06-26T01:46:25;20.70;99.90
666;DHT22;315;48.738;9.126;2023-06-26T01:49:09;20.60;99.90
666;DHT22;315;48.738;9.126;2023-06-26T01:51:46;20.50;99.90
666;DHT22;315;48.738;9.126;2023-06-26T01:54:18;20.40;99.90
666;DHT22;315;48.738;9.126;2023-06-26T01:56:48;20.30;99.90
666;DHT22;315;48.738;9.126;2023-06-26T01:59:14;20.40;99.90
666;DHT22;315;48.738;9.126;2023-06-26T02:01:40;20.40;99.90
666;DHT22;315;48.738;9.126;2023-06-26T02:04:06;20.40;99.90
666;DHT22;315;48.738;9.126;2023-06-26T02:06:31;20.50;99.90
666;DHT22;315;48.738;9.126;2023-06-26T02:08:57;20.40;99.90
666;DHT22;315;48.738;9.126;2023-06-26T02:11:23;20.40;99.90
666;DHT22;315;48.738;9.126;2023-06-26T02:13:48;20.20;99.90
666;DHT22;315;48.738;9.126;2023-06-26T02:16:14;20.20;99.90
666;DHT22;315;48.738;9.126;2023-06-26T02:18:39;20.20;99.90
666;DHT22;315;48.738;9.126;2023-06-26T02:21:05;20.20;99.90
666;DHT22;315;48.738;9.126;2023-06-26T02:23:31;20.20;99.90
666;DHT22;315;48.738;9.126;2023-06-26T02:25:56;20.10;99.90
666;DHT22;315;48.738;9.126;2023-06-26T02:28:22;20.10;99.90
666;DHT22;315;48.738;9.126;2023-06-26T02:30:47;20.10;99.90
666;DHT22;315;48.738;9.126;2023-06-26T02:33:13;20.20;99.90
666;DHT22;315;48.738;9.126;2023-06-26T02:35:38;20.10;99.90
666;DHT22;315;48.738;9.126;2023-06-26T02:38:04;20.00;99.90
666;DHT22;315;48.738;9.126;2023-06-26T02:40:30;20.00;99.90
666;DHT22;315;48.738;9.126;2023-06-26T02:42:55;20.00;99.90
666;DHT22;315;48.738;9.126;2023-06-26T02:45:21;19.90;99.90
666;DHT22;315;48.738;9.126;2023-06-26T02:47:46;19.90;99.90
666;DHT22;315;48.738;9.126;2023-06-26T02:50:12;19.90;99.90
666;DHT22;315;48.738;9.126;2023-06-26T02:52:37;19.90;99.90
666;DHT22;315;48.738;9.126;2023-06-26T02:55:03;19.90;99.90
666;DHT22;315;48.738;9.126;2023-06-26T02:57:30;20.00;99.90
666;DHT22;315;48.738;9.126;2023-06-26T02:59:55;19.90;99.90
666;DHT22;315;48.738;9.126;2023-06-26T03:02:21;19.90;99.90
666;DHT22;315;48.738;9.126;2023-06-26T03:04:46;19.80;99.90
666;DHT22;315;48.738;9.126;2023-06-26T03:07:12;19.80;99.90
666;DHT22;315;48.738;9.126;2023-06-26T03:09:37;19.70;99.90
666;DHT22;315;48.738;9.126;2023-06-26T03:12:03;19.70;99.90
666;DHT22;315;48.738;9.126;2023-06-26T03:14:28;19.70;99.90
666;DHT22;315;48.738;9.126;2023-06-26T03:16:55;19.80;99.90
666;DHT22;315;48.738;9.126;2023-06-26T03:19:23;20.00;99.90
666;DHT22;315;48.738;9.126;2023-06-26T03:21:48;19.90;99.90
666;DHT22;315;48.738;9.126;2023-06-26T03:24:14;19.90;99.90
666;DHT22;315;48.738;9.126;2023-06-26T03:26:39;19.90;99.90
666;DHT22;315;48.738;9.126;2023-06-26T03:29:05;20.10;99.90
666;DHT22;315;48.738;9.126;2023-06-26T03:31:30;20.00;99.90
666;DHT22;315;48.738;9.126;2023-06-26T03:33:56;20.00;99.90
666;DHT22;315;48.738;9.126;2023-06-26T03:36:21;19.80;99.90
666;DHT22;315;48.738;9.126;2023-06-26T03:38:47;19.70;99.90
666;DHT22;315;48.738;9.126;2023-06-26T03:41:12;19.70;99.90
666;DHT22;315;48.738;9.126;2023-06-26T03:43:38;19.80;99.90
666;DHT22;315;48.738;9.126;2023-06-26T03:46:03;19.90;99.90
666;DHT22;315;48.738;9.126;2023-06-26T03:48:29;20.30;99.90
666;DHT22;315;48.738;9.126;2023-06-26T03:50:55;20.10;99.90
666;DHT22;315;48.738;9.126;2023-06-26T03:53:20;20.20;99.90
666;DHT22;315;48.738;9.126;2023-06-26T03:55:46;20.30;99.90
666;DHT22;315;48.738;9.126;2023-06-26T03:58:11;20.20;99.90
666;DHT22;315;48.738;9.126;2023-06-26T04:00:37;20.20;99.90
666;DHT22;315;48.738;9.126;2023-06-26T04:03:02;20.40;99.90
666;DHT22;315;48.738;9.126;2023-06-26T04:05:29;20.60;99.90
666;DHT22;315;48.738;9.126;2023-06-26T04:07:55;20.70;99.90
666;DHT22;315;48.738;9.126;2023-06-26T04:10:20;20.70;99.90
666;DHT22;315;48.738;9.126;2023-06-26T04:12:47;20.80;99.90
666;DHT22;315;48.738;9.126;2023-06-26T04:15:13;20.80;99.90
666;DHT22;315;48.738;9.126;2023-06-26T04:17:39;20.90;99.90
666;DHT22;315;48.738;9.126;2023-06-26T04:20:05;20.80;99.90
666;DHT22;315;48.738;9.126;2023-06-26T04:22:34;20.80;99.90
666;DHT22;315;48.738;9.126;2023-06-26T04:25:02;20.90;99.90
666;DHT22;315;48.738;9.126;2023-06-26T04:27:28;21.00;99.90
666;DHT22;315;48.738;9.126;2023-06-26T04:29:55;21.10;99.90
666;DHT22;315;48.738;9.126;2023-06-26T04:32:21;21.10;99.90
666;DHT22;315;48.738;9.126;2023-06-26T04:34:46;21.10;99.90
666;DHT22;315;48.738;9.126;2023-06-26T04:37:13;21.10;99.90
666;DHT22;315;48.738;9.126;2023-06-26T04:39:41;21.10;99.90
666;DHT22;315;48.738;9.126;2023-06-26T04:42:07;21.10;99.90
666;DHT22;315;48.738;9.126;2023-06-26T04:44:33;21.20;99.90
666;DHT22;315;48.738;9.126;2023-06-26T04:46:58;21.30;99.90
666;DHT22;315;48.738;9.126;2023-06-26T04:49:24;21.40;99.90
666;DHT22;315;48.738;9.126;2023-06-26T04:51:50;21.50;99.90
666;DHT22;315;48.738;9.126;2023-06-26T04:54:16;21.70;99.90
666;DHT22;315;48.738;9.126;2023-06-26T04:56:42;21.80;99.90
666;DHT22;315;48.738;9.126;2023-06-26T04:59:09;21.90;99.90
666;DHT22;315;48.738;9.126;2023-06-26T05:01:38;22.10;99.90
666;DHT22;315;48.738;9.126;2023-06-26T05:04:05;22.20;99.90
666;DHT22;315;48.738;9.126;2023-06-26T05:06:30;22.40;99.90
666;DHT22;315;48.738;9.126;2023-06-26T05:08:56;22.50;99.90
666;DHT22;315;48.738;9.126;2023-06-26T05:11:21;22.60;99.90
666;DHT22;315;48.738;9.126;2023-06-26T05:13:48;22.80;99.90
666;DHT22;315;48.738;9.126;2023-06-26T05:16:14;22.90;99.90
666;DHT22;315;48.738;9.126;2023-06-26T05:18:39;23.10;99.90
666;DHT22;315;48.738;9.126;2023-06-26T05:21:05;23.30;99.90
666;DHT22;315;48.738;9.126;2023-06-26T05:23:32;23.40;99.90
666;DHT22;315;48.738;9.126;2023-06-26T05:25:58;23.60;99.90
666;DHT22;315;48.738;9.126;2023-06-26T05:28:24;23.70;99.90
666;DHT22;315;48.738;9.126;2023-06-26T05:30:51;23.90;99.90
666;DHT22;315;48.738;9.126;2023-06-26T05:33:18;24.10;99.90
666;DHT22;315;48.738;9.126;2023-06-26T05:35:45;24.30;99.90
666;DHT22;315;48.738;9.126;2023-06-26T05:38:12;24.40;99.60
666;DHT22;315;48.738;9.126;2023-06-26T05:40:39;24.50;99.10
666;DHT22;315;48.738;9.126;2023-06-26T05:43:06;24.70;97.60
666;DHT22;315;48.738;9.126;2023-06-26T05:45:32;24.90;96.90
666;DHT22;315;48.738;9.126;2023-06-26T05:47:57;25.10;95.30
666;DHT22;315;48.738;9.126;2023-06-26T05:50:23;25.30;95.50
666;DHT22;315;48.738;9.126;2023-06-26T05:52:49;25.40;92.50
666;DHT22;315;48.738;9.126;2023-06-26T05:55:15;25.30;91.00
666;DHT22;315;48.738;9.126;2023-06-26T05:57:40;25.30;90.80
666;DHT22;315;48.738;9.126;2023-06-26T06:00:06;25.40;90.60
666;DHT22;315;48.738;9.126;2023-06-26T06:02:36;25.60;90.10
666;DHT22;315;48.738;9.126;2023-06-26T06:05:03;25.70;88.20
666;DHT22;315;48.738;9.126;2023-06-26T06:07:28;25.80;86.80
666;DHT22;315;48.738;9.126;2023-06-26T06:09:54;25.90;87.20
666;DHT22;315;48.738;9.126;2023-06-26T06:12:19;26.10;85.70
666;DHT22;315;48.738;9.126;2023-06-26T06:14:45;26.30;84.50
666;DHT22;315;48.738;9.126;2023-06-26T06:17:10;26.30;83.20
666;DHT22;315;48.738;9.126;2023-06-26T06:19:36;26.50;83.50
666;DHT22;315;48.738;9.126;2023-06-26T06:22:01;26.70;81.50
666;DHT22;315;48.738;9.126;2023-06-26T06:24:27;26.70;79.40
666;DHT22;315;48.738;9.126;2023-06-26T06:26:53;26.80;79.40
666;DHT22;315;48.738;9.126;2023-06-26T06:29:18;27.00;80.00
666;DHT22;315;48.738;9.126;2023-06-26T06:31:44;27.20;78.30
666;DHT22;315;48.738;9.126;2023-06-26T06:34:10;27.40;78.00
666;DHT22;315;48.738;9.126;2023-06-26T06:36:37;27.70;77.10
666;DHT22;315;48.738;9.126;2023-06-26T06:39:02;27.70;74.10
666;DHT22;315;48.738;9.126;2023-06-26T06:41:28;27.70;74.50
666;DHT22;315;48.738;9.126;2023-06-26T06:43:54;27.80;73.40
666;DHT22;315;48.738;9.126;2023-06-26T06:46:20;27.90;73.30
666;DHT22;315;48.738;9.126;2023-06-26T06:48:45;27.90;72.40
666;DHT22;315;48.738;9.126;2023-06-26T06:51:12;28.00;72.00
666;DHT22;315;48.738;9.126;2023-06-26T06:53:38;28.20;71.90
666;DHT22;315;48.738;9.126;2023-06-26T06:56:03;28.60;70.90
666;DHT22;315;48.738;9.126;2023-06-26T06:58:29;28.80;69.10
666;DHT22;315;48.738;9.126;2023-06-26T07:00:56;28.90;69.20
666;DHT22;315;48.738;9.126;2023-06-26T07:03:21;29.10;67.60
666;DHT22;315;48.738;9.126;2023-06-26T07:05:47;29.00;67.00
666;DHT22;315;48.738;9.126;2023-06-26T07:08:13;29.10;66.90
666;DHT22;315;48.738;9.126;2023-06-26T07:10:38;29.20;66.30
666;DHT22;315;48.738;9.126;2023-06-26T07:13:04;29.50;65.50
666;DHT22;315;48.738;9.126;2023-06-26T07:15:31;29.60;64.80
666;DHT22;315;48.738;9.126;2023-06-26T07:17:56;29.50;64.90
666;DHT22;315;48.738;9.126;2023-06-26T07:20:22;29.60;64.60
666;DHT22;315;48.738;9.126;2023-06-26T07:22:48;29.70;64.30
666;DHT22;315;48.738;9.126;2023-06-26T07:25:14;29.90;64.50
666;DHT22;315;48.738;9.126;2023-06-26T07:27:40;30.30;63.00
666;DHT22;315;48.738;9.126;2023-06-26T07:30:07;30.30;62.00
666;DHT22;315;48.738;9.126;2023-06-26T07:32:36;30.50;62.00
666;DHT22;315;48.738;9.126;2023-06-26T07:35:02;30.70;61.00
666;DHT22;315;48.738;9.126;2023-06-26T07:37:28;31.00;61.40
666;DHT22;315;48.738;9.126;2023-06-26T07:39:53;31.20;60.50
666;DHT22;315;48.738;9.126;2023-06-26T07:42:19;31.10;59.60
666;DHT22;315;48.738;9.126;2023-06-26T07:44:44;31.50;59.80
666;DHT22;315;48.738;9.126;2023-06-26T07:47:10;31.60;59.00
666;DHT22;315;48.738;9.126;2023-06-26T07:49:36;31.70;58.00
666;DHT22;315;48.738;9.126;2023-06-26T07:52:01;31.80;57.80
666;DHT22;315;48.738;9.126;2023-06-26T07:54:27;32.00;56.40
666;DHT22;315;48.738;9.126;2023-06-26T07:56:53;31.90;57.10
666;DHT22;315;48.738;9.126;2023-06-26T07:59:24;32.00;56.60
666;DHT22;315;48.738;9.126;2023-06-26T08:01:54;32.30;56.10
666;DHT22;315;48.738;9.126;2023-06-26T08:04:21;32.30;54.60
666;DHT22;315;48.738;9.126;2023-06-26T08:06:57;32.50;53.80
666;DHT22;315;48.738;9.126;2023-06-26T08:09:24;32.80;52.50
666;DHT22;315;48.738;9.126;2023-06-26T08:11:50;32.90;51.70
666;DHT22;315;48.738;9.126;2023-06-26T08:14:17;33.20;51.20
666;DHT22;315;48.738;9.126;2023-06-26T08:16:43;33.50;50.10
666;DHT22;315;48.738;9.126;2023-06-26T08:19:10;33.30;49.80
666;DHT22;315;48.738;9.126;2023-06-26T08:21:35;33.40;50.00
666;DHT22;315;48.738;9.126;2023-06-26T08:24:01;33.80;49.50
666;DHT22;315;48.738;9.126;2023-06-26T08:26:27;34.00;49.10
666;DHT22;315;48.738;9.126;2023-06-26T08:28:53;33.90;48.30
666;DHT22;315;48.738;9.126;2023-06-26T08:31:19;34.00;48.50
666;DHT22;315;48.738;9.126;2023-06-26T08:33:44;34.00;47.90
666;DHT22;315;48.738;9.126;2023-06-26T08:36:10;34.10;47.90
666;DHT22;315;48.738;9.126;2023-06-26T08:38:35;34.20;47.20
666;DHT22;315;48.738;9.126;2023-06-26T08:41:01;34.60;46.60
666;DHT22;315;48.738;9.126;2023-06-26T08:43:27;34.70;46.20
666;DHT22;315;48.738;9.126;2023-06-26T08:45:53;34.40;46.10
666;DHT22;315;48.738;9.126;2023-06-26T08:48:20;34.70;45.30
666;DHT22;315;48.738;9.126;2023-06-26T08:50:48;34.80;45.10
666;DHT22;315;48.738;9.126;2023-06-26T08:56:19;34.70;45.40
666;DHT22;315;48.738;9.126;2023-06-26T08:58:47;35.20;44.70
666;DHT22;315;48.738;9.126;2023-06-26T09:01:13;35.70;44.10
666;DHT22;315;48.738;9.126;2023-06-26T09:03:39;36.10;42.90
666;DHT22;315;48.738;9.126;2023-06-26T09:06:07;36.30;42.30
666;DHT22;315;48.738;9.126;2023-06-26T09:08:32;36.30;42.20
666;DHT22;315;48.738;9.126;2023-06-26T09:10:58;36.30;41.70
666;DHT22;315;48.738;9.126;2023-06-26T09:13:24;36.30;41.40
666;DHT22;315;48.738;9.126;2023-06-26T09:15:49;36.10;41.30
666;DHT22;315;48.738;9.126;2023-06-26T09:18:18;35.70;41.30
666;DHT22;315;48.738;9.126;2023-06-26T09:20:44;35.50;41.80
666;DHT22;315;48.738;9.126;2023-06-26T09:23:10;35.50;41.30
666;DHT22;315;48.738;9.126;2023-06-26T09:25:38;36.00;40.80
666;DHT22;315;48.738;9.126;2023-06-26T09:28:05;36.50;39.70
666;DHT22;315;48.738;9.126;2023-06-26T09:30:32;36.20;39.80
666;DHT22;315;48.738;9.126;2023-06-26T09:33:00;36.50;39.50
666;DHT22;315;48.738;9.126;2023-06-26T09:35:37;37.00;38.90
666;DHT22;315;48.738;9.126;2023-06-26T09:38:03;36.70;38.70
666;DHT22;315;48.738;9.126;2023-06-26T09:40:29;36.80;38.90
666;DHT22;315;48.738;9.126;2023-06-26T09:43:02;36.30;39.20
666;DHT22;315;48.738;9.126;2023-06-26T09:45:28;35.80;39.30
666;DHT22;315;48.738;9.126;2023-06-26T09:47:54;35.70;39.10
666;DHT22;315;48.738;9.126;2023-06-26T09:50:23;35.10;39.50
666;DHT22;315;48.738;9.126;2023-06-26T09:52:51;34.70;40.30
666;DHT22;315;48.738;9.126;2023-06-26T09:55:19;34.50;41.10
666;DHT22;315;48.738;9.126;2023-06-26T09:57:47;35.50;40.50
666;DHT22;315;48.738;9.126;2023-06-26T10:00:13;36.50;39.50
666;DHT22;315;48.738;9.126;2023-06-26T10:02:39;36.60;38.70
666;DHT22;315;48.738;9.126;2023-06-26T10:05:05;36.60;38.70
666;DHT22;315;48.738;9.126;2023-06-26T10:07:31;37.30;38.50
666;DHT22;315;48.738;9.126;2023-06-26T10:09:57;37.20;38.50
666;DHT22;315;48.738;9.126;2023-06-26T10:12:30;37.00;38.50
666;DHT22;315;48.738;9.126;2023-06-26T10:14:57;37.20;38.30
666;DHT22;315;48.738;9.126;2023-06-26T10:17:25;36.50;38.30
666;DHT22;315;48.738;9.126;2023-06-26T10:19:53;36.40;39.00
666;DHT22;315;48.738;9.126;2023-06-26T10:22:27;37.00;38.70
666;DHT22;315;48.738;9.126;2023-06-26T10:24:55;36.80;38.60
666;DHT22;315;48.738;9.126;2023-06-26T10:27:22;36.70;38.60
666;DHT22;315;48.738;9.126;2023-06-26T10:29:53;35.70;39.70
666;DHT22;315;48.738;9.126;2023-06-26T10:32:21;34.70;41.10
666;DHT22;315;48.738;9.126;2023-06-26T10:34:48;33.90;42.20
666;DHT22;315;48.738;9.126;2023-06-26T10:37:13;33.00;44.00
666;DHT22;315;48.738;9.126;2023-06-26T10:39:49;32.60;45.10
666;DHT22;315;48.738;9.126;2023-06-26T10:42:16;32.30;46.00
666;DHT22;315;48.738;9.126;2023-06-26T10:44:42;31.90;47.20
666;DHT22;315;48.738;9.126;2023-06-26T10:47:12;32.10;47.30
666;DHT22;315;48.738;9.126;2023-06-26T10:49:53;33.30;46.40
666;DHT22;315;48.738;9.126;2023-06-26T10:52:19;34.90;44.30
666;DHT22;315;48.738;9.126;2023-06-26T10:54:45;35.90;43.20
666;DHT22;315;48.738;9.126;2023-06-26T10:57:10;37.20;42.20
666;DHT22;315;48.738;9.126;2023-06-26T10:59:39;38.00;41.10
666;DHT22;315;48.738;9.126;2023-06-26T11:02:06;38.60;40.30
666;DHT22;315;48.738;9.126;2023-06-26T11:04:44;39.40;39.00
666;DHT22;315;48.738;9.126;2023-06-26T11:07:20;39.60;39.10
666;DHT22;315;48.738;9.126;2023-06-26T11:09:59;39.50;38.90
666;DHT22;315;48.738;9.126;2023-06-26T11:15:00;39.30;38.50
666;DHT22;315;48.738;9.126;2023-06-26T11:17:26;40.00;37.80
666;DHT22;315;48.738;9.126;2023-06-26T11:19:52;40.00;37.00
666;DHT22;315;48.738;9.126;2023-06-26T11:22:19;38.70;38.50
666;DHT22;315;48.738;9.126;2023-06-26T11:24:45;39.60;38.20
666;DHT22;315;48.738;9.126;2023-06-26T11:27:11;38.60;38.10
666;DHT22;315;48.738;9.126;2023-06-26T11:29:37;38.30;39.00
666;DHT22;315;48.738;9.126;2023-06-26T11:32:04;37.70;39.80
666;DHT22;315;48.738;9.126;2023-06-26T11:34:31;38.70;39.50
666;DHT22;315;48.738;9.126;2023-06-26T11:36:57;39.70;38.50
666;DHT22;315;48.738;9.126;2023-06-26T11:39:23;40.80;37.50
666;DHT22;315;48.738;9.126;2023-06-26T11:41:48;39.80;36.60
666;DHT22;315;48.738;9.126;2023-06-26T11:44:14;40.80;36.70
666;DHT22;315;48.738;9.126;2023-06-26T11:46:45;40.80;36.80
666;DHT22;315;48.738;9.126;2023-06-26T11:49:11;41.10;37.10
666;DHT22;315;48.738;9.126;2023-06-26T11:51:36;41.60;36.00
666;DHT22;315;48.738;9.126;2023-06-26T11:54:03;41.60;36.50
666;DHT22;315;48.738;9.126;2023-06-26T11:56:29;43.00;35.70
666;DHT22;315;48.738;9.126;2023-06-26T11:58:59;42.10;35.50
666;DHT22;315;48.738;9.126;2023-06-26T12:01:29;40.80;36.40
666;DHT22;315;48.738;9.126;2023-06-26T12:03:59;40.80;36.70
666;DHT22;315;48.738;9.126;2023-06-26T12:06:27;40.00;37.30
666;DHT22;315;48.738;9.126;2023-06-26T12:08:53;40.60;37.90
666;DHT22;315;48.738;9.126;2023-06-26T12:11:20;41.00;36.90
666;DHT22;315;48.738;9.126;2023-06-26T12:13:48;39.10;37.90
666;DHT22;315;48.738;9.126;2023-06-26T12:16:14;38.50;38.80
666;DHT22;315;48.738;9.126;2023-06-26T12:18:40;37.90;39.30
666;DHT22;315;48.738;9.126;2023-06-26T12:21:06;38.90;39.50
666;DHT22;315;48.738;9.126;2023-06-26T12:23:41;40.30;37.50
666;DHT22;315;48.738;9.126;2023-06-26T12:26:20;40.70;37.90
666;DHT22;315;48.738;9.126;2023-06-26T12:28:46;40.70;37.20
666;DHT22;315;48.738;9.126;2023-06-26T12:31:13;41.50;36.50
666;DHT22;315;48.738;9.126;2023-06-26T12:33:39;41.50;37.10
666;DHT22;315;48.738;9.126;2023-06-26T12:36:05;43.10;36.40
666;DHT22;315;48.738;9.126;2023-06-26T12:38:33;43.20;35.70
666;DHT22;315;48.738;9.126;2023-06-26T12:40:59;43.90;35.50
666;DHT22;315;48.738;9.126;2023-06-26T12:43:26;44.50;34.00
666;DHT22;315;48.738;9.126;2023-06-26T12:45:57;43.90;34.10
666;DHT22;315;48.738;9.126;2023-06-26T12:48:42;42.20;35.00
666;DHT22;315;48.738;9.126;2023-06-26T12:51:16;43.20;34.80
666;DHT22;315;48.738;9.126;2023-06-26T12:53:42;41.70;34.90
666;DHT22;315;48.738;9.126;2023-06-26T12:56:11;41.50;35.00
666;DHT22;315;48.738;9.126;2023-06-26T12:58:37;42.40;35.00
666;DHT22;315;48.738;9.126;2023-06-26T13:01:04;42.80;34.70
666;DHT22;315;48.738;9.126;2023-06-26T13:03:31;42.20;34.80
666;DHT22;315;48.738;9.126;2023-06-26T13:05:56;41.60;34.80
666;DHT22;315;48.738;9.126;2023-06-26T13:08:22;40.90;35.50
666;DHT22;315;48.738;9.126;2023-06-26T13:10:48;41.30;35.40
666;DHT22;315;48.738;9.126;2023-06-26T13:13:13;41.90;34.50
666;DHT22;315;48.738;9.126;2023-06-26T13:15:39;42.10;34.40
666;DHT22;315;48.738;9.126;2023-06-26T13:18:04;40.70;35.80
666;DHT22;315;48.738;9.126;2023-06-26T13:20:30;39.70;36.10
666;DHT22;315;48.738;9.126;2023-06-26T13:22:55;39.50;36.10
666;DHT22;315;48.738;9.126;2023-06-26T13:25:22;39.80;36.50
666;DHT22;315;48.738;9.126;2023-06-26T13:27:48;38.70;36.10
666;DHT22;315;48.738;9.126;2023-06-26T13:30:15;37.40;37.30
666;DHT22;315;48.738;9.126;2023-06-26T13:32:40;36.60;38.70
666;DHT22;315;48.738;9.126;2023-06-26T13:35:06;35.90;39.70
666;DHT22;315;48.738;9.126;2023-06-26T13:37:32;36.50;39.40
666;DHT22;315;48.738;9.126;2023-06-26T13:39:59;35.70;39.60
666;DHT22;315;48.738;9.126;2023-06-26T13:42:25;35.90;39.60
666;DHT22;315;48.738;9.126;2023-06-26T13:44:50;35.40;39.40
666;DHT22;315;48.738;9.126;2023-06-26T13:47:16;35.00;40.30
666;DHT22;315;48.738;9.126;2023-06-26T13:49:41;34.60;40.70
666;DHT22;315;48.738;9.126;2023-06-26T13:52:07;34.40;40.80
666;DHT22;315;48.738;9.126;2023-06-26T13:54:35;34.10;40.50
666;DHT22;315;48.738;9.126;2023-06-26T13:57:01;33.70;41.00
666;DHT22;315;48.738;9.126;2023-06-26T13:59:28;33.00;41.50
666;DHT22;315;48.738;9.126;2023-06-26T14:01:54;33.30;42.00
666;DHT22;315;48.738;9.126;2023-06-26T14:04:19;33.00;40.80
666;DHT22;315;48.738;9.126;2023-06-26T14:06:46;32.70;41.20
666;DHT22;315;48.738;9.126;2023-06-26T14:09:11;32.70;41.20
666;DHT22;315;48.738;9.126;2023-06-26T14:11:37;32.30;41.10
666;DHT22;315;48.738;9.126;2023-06-26T14:14:03;32.30;41.30
666;DHT22;315;48.738;9.126;2023-06-26T14:16:29;32.10;41.20
666;DHT22;315;48.738;9.126;2023-06-26T14:18:55;32.10;41.10
666;DHT22;315;48.738;9.126;2023-06-26T14:21:20;32.00;41.10
666;DHT22;315;48.738;9.126;2023-06-26T14:23:46;32.00;41.60
666;DHT22;315;48.738;9.126;2023-06-26T14:26:12;31.80;41.30
666;DHT22;315;48.738;9.126;2023-06-26T14:28:38;31.90;40.90
666;DHT22;315;48.738;9.126;2023-06-26T14:31:04;31.80;41.10
666;DHT22;315;48.738;9.126;2023-06-26T14:33:29;31.80;41.30
666;DHT22;315;48.738;9.126;2023-06-26T14:35:55;31.70;41.10
666;DHT22;315;48.738;9.126;2023-06-26T14:38:20;31.70;41.40
666;DHT22;315;48.738;9.126;2023-06-26T14:40:46;31.60;41.50
666;DHT22;315;48.738;9.126;2023-06-26T14:43:12;31.40;41.70
666;DHT22;315;48.738;9.126;2023-06-26T14:45:37;31.50;42.00
666;DHT22;315;48.738;9.126;2023-06-26T14:48:03;31.60;42.00
666;DHT22;315;48.738;9.126;2023-06-26T14:50:28;31.60;42.00
666;DHT22;315;48.738;9.126;2023-06-26T14:52:54;31.70;42.00
666;DHT22;315;48.738;9.126;2023-06-26T14:55:19;31.50;42.40
666;DHT22;315;48.738;9.126;2023-06-26T14:57:45;31.50;42.20
666;DHT22;315;48.738;9.126;2023-06-26T15:00:11;31.30;42.30
666;DHT22;315;48.738;9.126;2023-06-26T15:02:37;30.90;43.30
666;DHT22;315;48.738;9.126;2023-06-26T15:05:02;30.80;43.50
666;DHT22;315;48.738;9.126;2023-06-26T15:07:28;30.80;43.60
666;DHT22;315;48.738;9.126;2023-06-26T15:09:54;30.50;44.00
666;DHT22;315;48.738;9.126;2023-06-26T15:12:19;30.50;44.30
666;DHT22;315;48.738;9.126;2023-06-26T15:14:45;30.30;44.30
666;DHT22;315;48.738;9.126;2023-06-26T15:17:11;30.10;44.70
666;DHT22;315;48.738;9.126;2023-06-26T15:19:37;30.00;44.70
666;DHT22;315;48.738;9.126;2023-06-26T15:22:04;30.20;44.50
666;DHT22;315;48.738;9.126;2023-06-26T15:24:29;30.30;44.10
666;DHT22;315;48.738;9.126;2023-06-26T15:26:55;30.30;44.10
666;DHT22;315;48.738;9.126;2023-06-26T15:29:21;30.20;44.40
666;DHT22;315;48.738;9.126;2023-06-26T15:31:47;30.10;44.40
666;DHT22;315;48.738;9.126;2023-06-26T15:34:12;29.90;44.50
666;DHT22;315;48.738;9.126;2023-06-26T15:36:38;29.90;44.60
666;DHT22;315;48.738;9.126;2023-06-26T15:39:04;29.70;44.60
666;DHT22;315;48.738;9.126;2023-06-26T15:41:29;29.60;45.10
666;DHT22;315;48.738;9.126;2023-06-26T15:43:55;29.50;45.50
666;DHT22;315;48.738;9.126;2023-06-26T15:46:21;29.40;45.00
666;DHT22;315;48.738;9.126;2023-06-26T15:48:46;29.30;45.30
666;DHT22;315;48.738;9.126;2023-06-26T15:51:13;29.30;45.50
666;DHT22;315;48.738;9.126;2023-06-26T15:53:40;29.30;45.50
666;DHT22;315;48.738;9.126;2023-06-26T15:56:12;29.20;45.20
666;DHT22;315;48.738;9.126;2023-06-26T15:58:38;29.00;45.70
666;DHT22;315;48.738;9.126;2023-06-26T16:01:08;29.00;45.80
666;DHT22;315;48.738;9.126;2023-06-26T16:03:34;29.00;45.60
666;DHT22;315;48.738;9.126;2023-06-26T16:06:01;29.10;46.20
666;DHT22;315;48.738;9.126;2023-06-26T16:08:27;29.00;45.90
666;DHT22;315;48.738;9.126;2023-06-26T16:10:53;28.90;46.10
666;DHT22;315;48.738;9.126;2023-06-26T16:13:18;28.70;46.30
666;DHT22;315;48.738;9.126;2023-06-26T16:15:46;28.80;46.60
666;DHT22;315;48.738;9.126;2023-06-26T16:18:12;28.80;46.50
666;DHT22;315;48.738;9.126;2023-06-26T16:20:37;28.50;46.60
666;DHT22;315;48.738;9.126;2023-06-26T16:23:03;28.30;46.70
666;DHT22;315;48.738;9.126;2023-06-26T16:25:28;28.00;46.90
666;DHT22;315;48.738;9.126;2023-06-26T16:27:54;27.90;47.40
666;DHT22;315;48.738;9.126;2023-06-26T16:30:19;28.10;47.10
666;DHT22;315;48.738;9.126;2023-06-26T16:32:45;27.90;46.70
666;DHT22;315;48.738;9.126;2023-06-26T16:35:10;27.90;46.90
666;DHT22;315;48.738;9.126;2023-06-26T16:37:36;27.90;46.40
666;DHT22;315;48.738;9.126;2023-06-26T16:40:01;28.00;46.40
666;DHT22;315;48.738;9.126;2023-06-26T16:42:28;28.10;46.40